sensor_id;sensor_type;location;lat;lon;timestamp;pressure;altitude;pressure_sealevel;temperature;humidity
5522;BME280;2783;48.730;8.006;2023-07-29T00:00:41;99549.63;;;20.70;100.00
5522;BME280;2783;48.730;8.006;2023-07-29T00:03:08;99550.25;;;20.73;100.00
5522;BME280;2783;48.730;8.006;2023-07-29T00:05:33;99539.44;;;20.73;100.00
5522;BME280;2783;48.730;8.006;2023-07-29T00:07:59;99544.84;;;20.73;100.00
5522;BME280;2783;48.730;8.006;2023-07-29T00:10:25;99547.28;;;20.76;100.00
5522;BME280;2783;48.730;8.006;2023-07-29T00:12:51;99549.97;;;20.76;100.00
5522;BME280;2783;48.730;8.006;2023-07-29T00:15:16;99544.56;;;20.76;100.00
5522;BME280;2783;48.730;8.006;2023-07-29T00:17:42;99547.03;;;20.79;100.00
5522;BME280;2783;48.730;8.006;2023-07-29T00:20:07;99543.34;;;20.80;100.00
5522;BME280;2783;48.730;8.006;2023-07-29T00:22:33;99544.94;;;20.83;100.00
5522;BME280;2783;48.730;8.006;2023-07-29T00:24:58;99554.66;;;20.85;100.00
5522;BME280;2783;48.730;8.006;2023-07-29T00:27:24;99550.69;;;20.89;100.00
5522;BME280;2783;48.730;8.006;2023-07-29T00:29:50;99547.72;;;20.92;100.00
5522;BME280;2783;48.730;8.006;2023-07-29T00:32:15;99554.00;;;20.93;100.00
5522;BME280;2783;48.730;8.006;2023-07-29T00:34:41;99549.34;;;20.95;100.00
5522;BME280;2783;48.730;8.006;2023-07-29T00:37:06;99551.91;;;20.97;100.00
5522;BME280;2783;48.730;8.006;2023-07-29T00:39:32;99550.69;;;21.01;100.00
5522;BME280;2783;48.730;8.006;2023-07-29T00:41:58;99545.28;;;21.01;100.00
5522;BME280;2783;48.730;8.006;2023-07-29T00:44:23;99531.53;;;21.04;100.00
5522;BME280;2783;48.730;8.006;2023-07-29T00:46:51;99527.09;;;21.03;100.00
5522;BME280;2783;48.730;8.006;2023-07-29T00:49:17;99536.06;;;21.03;100.00
5522;BME280;2783;48.730;8.006;2023-07-29T00:51:43;99528.84;;;21.04;100.00
5522;BME280;2783;48.730;8.006;2023-07-29T00:54:08;99528.09;;;21.02;100.00
5522;BME280;2783;48.730;8.006;2023-07-29T00:56:34;99515.94;;;20.85;100.00
5522;BME280;2783;48.730;8.006;2023-07-29T00:59:01;99516.81;;;20.74;100.00
5522;BME280;2783;48.730;8.006;2023-07-29T01:01:31;99511.88;;;20.79;100.00
5522;BME280;2783;48.730;8.006;2023-07-29T01:03:56;99517.03;;;20.82;100.00
5522;BME280;2783;48.730;8.006;2023-07-29T01:09:04;99517.31;;;20.68;100.00
5522;BME280;2783;48.730;8.006;2023-07-29T01:12:06;99515.13;;;20.62;100.00
5522;BME280;2783;48.730;8.006;2023-07-29T01:14:37;99514.38;;;20.60;100.00
5522;BME280;2783;48.730;8.006;2023-07-29T01:17:08;99506.28;;;20.60;100.00
5522;BME280;2783;48.730;8.006;2023-07-29T01:20:06;99507.25;;;20.59;100.00
5522;BME280;2783;48.730;8.006;2023-07-29T01:22:36;99501.22;;;20.67;100.00
5522;BME280;2783;48.730;8.006;2023-07-29T01:25:03;99504.06;;;20.65;100.00
5522;BME280;2783;48.730;8.006;2023-07-29T01:27:29;99507.00;;;20.62;100.00
5522;BME280;2783;48.730;8.006;2023-07-29T01:29:56;99504.41;;;20.72;100.00
5522;BME280;2783;48.730;8.006;2023-07-29T01:32:34;99500.09;;;20.80;100.00
5522;BME280;2783;48.730;8.006;2023-07-29T01:35:20;99499.09;;;20.81;100.00
5522;BME280;2783;48.730;8.006;2023-07-29T01:37:51;99509.78;;;20.83;100.00
5522;BME280;2783;48.730;8.006;2023-07-29T01:40:17;99502.53;;;20.83;100.00
5522;BME280;2783;48.730;8.006;2023-07-29T01:42:43;99507.22;;;20.81;100.00
5522;BME280;2783;48.730;8.006;2023-07-29T01:45:10;99500.81;;;20.82;100.00
5522;BME280;2783;48.730;8.006;2023-07-29T01:47:36;99501.69;;;20.83;100.00
5522;BME280;2783;48.730;8.006;2023-07-29T01:50:03;99502.41;;;20.85;100.00
5522;BME280;2783;48.730;8.006;2023-07-29T01:52:29;99492.69;;;20.82;100.00
5522;BME280;2783;48.730;8.006;2023-07-29T01:54:54;99498.59;;;20.87;100.00
5522;BME280;2783;48.730;8.006;2023-07-29T01:57:20;99504.00;;;20.87;100.00
5522;BME280;2783;48.730;8.006;2023-07-29T01:59:45;99500.31;;;20.88;100.00
5522;BME280;2783;48.730;8.006;2023-07-29T02:02:10;99504.72;;;20.89;100.00
5522;BME280;2783;48.730;8.006;2023-07-29T02:04:36;99490.13;;;20.92;100.00
5522;BME280;2783;48.730;8.006;2023-07-29T02:07:02;99483.84;;;20.91;100.00
5522;BME280;2783;48.730;8.006;2023-07-29T02:09:27;99485.53;;;20.92;100.00
5522;BME280;2783;48.730;8.006;2023-07-29T02:11:53;99487.16;;;20.95;100.00
5522;BME280;2783;48.730;8.006;2023-07-29T02:14:18;99490.69;;;20.95;100.00
5522;BME280;2783;48.730;8.006;2023-07-29T02:16:43;99484.56;;;20.93;100.00
5522;BME280;2783;48.730;8.006;2023-07-29T02:19:09;99491.69;;;20.94;100.00
5522;BME280;2783;48.730;8.006;2023-07-29T02:21:35;99494.41;;;20.94;100.00
5522;BME280;2783;48.730;8.006;2023-07-29T02:24:00;99488.75;;;20.98;100.00
5522;BME280;2783;48.730;8.006;2023-07-29T02:26:25;99485.22;;;20.97;100.00
5522;BME280;2783;48.730;8.006;2023-07-29T02:28:51;99491.94;;;21.03;100.00
5522;BME280;2783;48.730;8.006;2023-07-29T02:31:23;99485.44;;;21.05;100.00
5522;BME280;2783;48.730;8.006;2023-07-29T02:33:49;99487.13;;;21.06;100.00
5522;BME280;2783;48.730;8.006;2023-07-29T02:36:15;99489.72;;;21.08;100.00
5522;BME280;2783;48.730;8.006;2023-07-29T02:38:42;99478.88;;;21.08;100.00
5522;BME280;2783;48.730;8.006;2023-07-29T02:41:11;99480.72;;;21.07;100.00
5522;BME280;2783;48.730;8.006;2023-07-29T02:43:38;99481.34;;;21.11;100.00
5522;BME280;2783;48.730;8.006;2023-07-29T02:46:04;99485.91;;;21.10;100.00
5522;BME280;2783;48.730;8.006;2023-07-29T02:48:29;99480.38;;;21.12;100.00
5522;BME280;2783;48.730;8.006;2023-07-29T02:50:55;99471.50;;;21.10;100.00
5522;BME280;2783;48.730;8.006;2023-07-29T02:53:22;99469.69;;;21.10;100.00
5522;BME280;2783;48.730;8.006;2023-07-29T02:55:48;99468.69;;;21.11;100.00
5522;BME280;2783;48.730;8.006;2023-07-29T02:58:13;99471.50;;;21.10;100.00
5522;BME280;2783;48.730;8.006;2023-07-29T03:00:39;99463.53;;;21.08;100.00
5522;BME280;2783;48.730;8.006;2023-07-29T03:03:07;99452.72;;;21.08;100.00
5522;BME280;2783;48.730;8.006;2023-07-29T03:05:33;99448.41;;;21.06;100.00
5522;BME280;2783;48.730;8.006;2023-07-29T03:07:59;99442.03;;;21.07;100.00
5522;BME280;2783;48.730;8.006;2023-07-29T03:10:24;99430.22;;;21.08;100.00
5522;BME280;2783;48.730;8.006;2023-07-29T03:12:50;99425.34;;;21.02;100.00
5522;BME280;2783;48.730;8.006;2023-07-29T03:15:16;99441.75;;;21.10;100.00
5522;BME280;2783;48.730;8.006;2023-07-29T03:17:41;99447.78;;;21.13;100.00
5522;BME280;2783;48.730;8.006;2023-07-29T03:20:07;99456.50;;;21.17;100.00
5522;BME280;2783;48.730;8.006;2023-07-29T03:22:33;99466.31;;;21.18;100.00
5522;BME280;2783;48.730;8.006;2023-07-29T03:24:58;99478.84;;;21.19;100.00
5522;BME280;2783;48.730;8.006;2023-07-29T03:27:24;99485.38;;;21.16;100.00
5522;BME280;2783;48.730;8.006;2023-07-29T03:29:49;99483.53;;;21.17;100.00
5522;BME280;2783;48.730;8.006;2023-07-29T03:32:14;99470.03;;;21.17;100.00
5522;BME280;2783;48.730;8.006;2023-07-29T03:34:40;99469.81;;;21.09;100.00
5522;BME280;2783;48.730;8.006;2023-07-29T03:37:05;99469.91;;;21.07;100.00
5522;BME280;2783;48.730;8.006;2023-07-29T03:39:31;99467.34;;;21.06;100.00
5522;BME280;2783;48.730;8.006;2023-07-29T03:41:57;99474.75;;;21.04;100.00
5522;BME280;2783;48.730;8.006;2023-07-29T03:44:23;99467.88;;;21.00;100.00
5522;BME280;2783;48.730;8.006;2023-07-29T03:46:48;99467.00;;;20.99;100.00
5522;BME280;2783;48.730;8.006;2023-07-29T03:49:14;99466.88;;;21.01;100.00
5522;BME280;2783;48.730;8.006;2023-07-29T03:51:39;99463.47;;;20.99;100.00
5522;BME280;2783;48.730;8.006;2023-07-29T03:54:05;99450.63;;;21.01;100.00
5522;BME280;2783;48.730;8.006;2023-07-29T03:56:31;99445.50;;;20.98;100.00
5522;BME280;2783;48.730;8.006;2023-07-29T03:59:04;99456.31;;;20.98;100.00
5522;BME280;2783;48.730;8.006;2023-07-29T04:01:30;99456.31;;;20.98;100.00
5522;BME280;2783;48.730;8.006;2023-07-29T04:03:56;99441.69;;;20.89;100.00
5522;BME280;2783;48.730;8.006;2023-07-29T04:06:21;99437.41;;;20.86;100.00
5522;BME280;2783;48.730;8.006;2023-07-29T04:08:48;99452.25;;;20.92;100.00
5522;BME280;2783;48.730;8.006;2023-07-29T04:11:13;99443.41;;;20.90;100.00
5522;BME280;2783;48.730;8.006;2023-07-29T04:13:39;99440.84;;;20.88;100.00
5522;BME280;2783;48.730;8.006;2023-07-29T04:16:04;99447.69;;;20.92;100.00
5522;BME280;2783;48.730;8.006;2023-07-29T04:18:30;99444.50;;;20.87;100.00
5522;BME280;2783;48.730;8.006;2023-07-29T04:20:55;99446.25;;;20.88;100.00
5522;BME280;2783;48.730;8.006;2023-07-29T04:23:20;99442.19;;;20.83;100.00
5522;BME280;2783;48.730;8.006;2023-07-29T04:25:46;99447.72;;;20.81;100.00
5522;BME280;2783;48.730;8.006;2023-07-29T04:28:11;99446.75;;;20.82;100.00
5522;BME280;2783;48.730;8.006;2023-07-29T04:30:37;99452.63;;;20.87;100.00
5522;BME280;2783;48.730;8.006;2023-07-29T04:33:02;99457.31;;;20.85;100.00
5522;BME280;2783;48.730;8.006;2023-07-29T04:35:28;99459.16;;;20.85;100.00
5522;BME280;2783;48.730;8.006;2023-07-29T04:37:53;99462.72;;;20.85;100.00
5522;BME280;2783;48.730;8.006;2023-07-29T04:40:19;99462.47;;;20.88;100.00
5522;BME280;2783;48.730;8.006;2023-07-29T04:42:44;99461.59;;;20.88;100.00
5522;BME280;2783;48.730;8.006;2023-07-29T04:45:10;99461.47;;;20.89;100.00
5522;BME280;2783;48.730;8.006;2023-07-29T04:47:35;99468.59;;;20.90;100.00
5522;BME280;2783;48.730;8.006;2023-07-29T04:50:00;99465.53;;;20.95;100.00
5522;BME280;2783;48.730;8.006;2023-07-29T04:52:26;99472.53;;;20.98;100.00
5522;BME280;2783;48.730;8.006;2023-07-29T04:54:51;99469.56;;;21.01;100.00
5522;BME280;2783;48.730;8.006;2023-07-29T04:57:17;99475.84;;;21.01;100.00
5522;BME280;2783;48.730;8.006;2023-07-29T04:59:42;99471.03;;;21.05;100.00
5522;BME280;2783;48.730;8.006;2023-07-29T05:02:08;99449.44;;;20.93;100.00
5522;BME280;2783;48.730;8.006;2023-07-29T05:04:33;99481.06;;;21.14;100.00
5522;BME280;2783;48.730;8.006;2023-07-29T05:06:58;99488.69;;;21.20;100.00
5522;BME280;2783;48.730;8.006;2023-07-29T05:09:24;99486.47;;;21.25;100.00
5522;BME280;2783;48.730;8.006;2023-07-29T05:11:49;99482.75;;;21.26;100.00
5522;BME280;2783;48.730;8.006;2023-07-29T05:14:16;99488.75;;;21.29;100.00
5522;BME280;2783;48.730;8.006;2023-07-29T05:16:42;99480.50;;;21.31;100.00
5522;BME280;2783;48.730;8.006;2023-07-29T05:19:07;99474.84;;;21.34;100.00
5522;BME280;2783;48.730;8.006;2023-07-29T05:21:33;99472.00;;;21.35;100.00
5522;BME280;2783;48.730;8.006;2023-07-29T05:23:59;99475.44;;;21.37;100.00
5522;BME280;2783;48.730;8.006;2023-07-29T05:26:24;99481.44;;;21.41;100.00
5522;BME280;2783;48.730;8.006;2023-07-29T05:28:49;99476.03;;;21.41;100.00
5522;BME280;2783;48.730;8.006;2023-07-29T05:31:15;99489.69;;;21.39;100.00
5522;BME280;2783;48.730;8.006;2023-07-29T05:33:40;99483.56;;;21.37;100.00
5522;BME280;2783;48.730;8.006;2023-07-29T05:36:06;99491.19;;;21.32;100.00
5522;BME280;2783;48.730;8.006;2023-07-29T05:38:31;99501.06;;;21.33;100.00
5522;BME280;2783;48.730;8.006;2023-07-29T05:40:57;99505.88;;;21.30;100.00
5522;BME280;2783;48.730;8.006;2023-07-29T05:43:24;99509.28;;;21.32;100.00
5522;BME280;2783;48.730;8.006;2023-07-29T05:45:50;99508.72;;;21.28;100.00
5522;BME280;2783;48.730;8.006;2023-07-29T05:48:16;99495.31;;;21.27;100.00
5522;BME280;2783;48.730;8.006;2023-07-29T05:50:41;99491.88;;;21.25;100.00
5522;BME280;2783;48.730;8.006;2023-07-29T05:53:07;99497.16;;;21.26;100.00
5522;BME280;2783;48.730;8.006;2023-07-29T05:55:32;99504.13;;;21.29;100.00
5522;BME280;2783;48.730;8.006;2023-07-29T05:57:58;99511.53;;;21.27;100.00
5522;BME280;2783;48.730;8.006;2023-07-29T06:00:23;99507.84;;;21.28;100.00
5522;BME280;2783;48.730;8.006;2023-07-29T06:02:49;99514.25;;;21.27;100.00
5522;BME280;2783;48.730;8.006;2023-07-29T06:05:14;99518.91;;;21.25;100.00
5522;BME280;2783;48.730;8.006;2023-07-29T06:07:40;99533.41;;;21.24;100.00
5522;BME280;2783;48.730;8.006;2023-07-29T06:10:09;99538.81;;;21.24;100.00
5522;BME280;2783;48.730;8.006;2023-07-29T06:12:37;99535.16;;;21.25;100.00
5522;BME280;2783;48.730;8.006;2023-07-29T06:15:03;99538.47;;;21.28;100.00
5522;BME280;2783;48.730;8.006;2023-07-29T06:17:28;99533.75;;;21.30;100.00
5522;BME280;2783;48.730;8.006;2023-07-29T06:19:54;99536.38;;;21.21;100.00
5522;BME280;2783;48.730;8.006;2023-07-29T06:22:19;99530.91;;;21.32;100.00
5522;BME280;2783;48.730;8.006;2023-07-29T06:24:45;99536.44;;;21.41;100.00
5522;BME280;2783;48.730;8.006;2023-07-29T06:27:10;99544.91;;;21.48;100.00
5522;BME280;2783;48.730;8.006;2023-07-29T06:29:35;99537.25;;;21.53;100.00
5522;BME280;2783;48.730;8.006;2023-07-29T06:32:01;99537.03;;;21.45;100.00
5522;BME280;2783;48.730;8.006;2023-07-29T06:34:26;99547.28;;;21.62;100.00
5522;BME280;2783;48.730;8.006;2023-07-29T06:36:52;99549.22;;;21.71;100.00
5522;BME280;2783;48.730;8.006;2023-07-29T06:39:17;99535.91;;;21.79;100.00
5522;BME280;2783;48.730;8.006;2023-07-29T06:41:42;99556.06;;;21.75;100.00
5522;BME280;2783;48.730;8.006;2023-07-29T06:44:08;99551.63;;;21.53;100.00
5522;BME280;2783;48.730;8.006;2023-07-29T06:46:33;99558.69;;;21.45;100.00
5522;BME280;2783;48.730;8.006;2023-07-29T06:48:58;99556.69;;;21.47;100.00
5522;BME280;2783;48.730;8.006;2023-07-29T06:51:24;99555.59;;;21.49;100.00
5522;BME280;2783;48.730;8.006;2023-07-29T06:53:49;99541.78;;;21.52;100.00
5522;BME280;2783;48.730;8.006;2023-07-29T06:56:15;99546.31;;;21.63;100.00
5522;BME280;2783;48.730;8.006;2023-07-29T06:58:40;99554.63;;;22.02;100.00
5522;BME280;2783;48.730;8.006;2023-07-29T07:01:06;99547.13;;;22.46;100.00
5522;BME280;2783;48.730;8.006;2023-07-29T07:03:31;99534.41;;;22.67;100.00
5522;BME280;2783;48.730;8.006;2023-07-29T07:05:56;99531.28;;;22.71;100.00
5522;BME280;2783;48.730;8.006;2023-07-29T07:08:22;99528.78;;;22.59;100.00
5522;BME280;2783;48.730;8.006;2023-07-29T07:10:48;99521.56;;;22.69;100.00
5522;BME280;2783;48.730;8.006;2023-07-29T07:13:13;99506.78;;;22.92;100.00
5522;BME280;2783;48.730;8.006;2023-07-29T07:15:38;99529.72;;;23.37;100.00
5522;BME280;2783;48.730;8.006;2023-07-29T07:18:04;99546.03;;;23.66;100.00
5522;BME280;2783;48.730;8.006;2023-07-29T07:20:29;99546.84;;;23.95;100.00
5522;BME280;2783;48.730;8.006;2023-07-29T07:22:55;99541.94;;;24.27;100.00
5522;BME280;2783;48.730;8.006;2023-07-29T07:25:20;99539.94;;;24.29;100.00
5522;BME280;2783;48.730;8.006;2023-07-29T07:27:46;99545.66;;;24.26;100.00
5522;BME280;2783;48.730;8.006;2023-07-29T07:30:11;99546.72;;;24.06;99.85
5522;BME280;2783;48.730;8.006;2023-07-29T07:32:37;99541.97;;;23.89;100.00
5522;BME280;2783;48.730;8.006;2023-07-29T07:35:03;99545.75;;;23.69;100.00
5522;BME280;2783;48.730;8.006;2023-07-29T07:37:29;99537.59;;;23.69;100.00
5522;BME280;2783;48.730;8.006;2023-07-29T07:39:54;99538.97;;;23.82;100.00
5522;BME280;2783;48.730;8.006;2023-07-29T07:42:20;99535.25;;;23.93;100.00
5522;BME280;2783;48.730;8.006;2023-07-29T07:44:45;99541.53;;;24.12;100.00
5522;BME280;2783;48.730;8.006;2023-07-29T07:47:10;99548.19;;;24.37;100.00
5522;BME280;2783;48.730;8.006;2023-07-29T07:49:36;99547.88;;;24.49;100.00
5522;BME280;2783;48.730;8.006;2023-07-29T07:52:01;99544.09;;;24.60;99.30
5522;BME280;2783;48.730;8.006;2023-07-29T07:54:27;99540.00;;;25.10;98.18
5522;BME280;2783;48.730;8.006;2023-07-29T07:56:52;99537.22;;;25.47;94.10
5522;BME280;2783;48.730;8.006;2023-07-29T07:59:18;99536.25;;;25.91;92.66
5522;BME280;2783;48.730;8.006;2023-07-29T08:01:43;99532.88;;;25.97;90.17
5522;BME280;2783;48.730;8.006;2023-07-29T08:04:08;99539.97;;;25.90;88.69
5522;BME280;2783;48.730;8.006;2023-07-29T08:06:34;99544.66;;;25.62;88.31
5522;BME280;2783;48.730;8.006;2023-07-29T08:09:00;99543.28;;;25.58;89.75
5522;BME280;2783;48.730;8.006;2023-07-29T08:11:26;99538.84;;;25.40;90.32
5522;BME280;2783;48.730;8.006;2023-07-29T08:13:51;99539.88;;;25.29;91.22
5522;BME280;2783;48.730;8.006;2023-07-29T08:16:17;99548.03;;;25.29;91.83
5522;BME280;2783;48.730;8.006;2023-07-29T08:18:42;99548.66;;;25.23;91.55
5522;BME280;2783;48.730;8.006;2023-07-29T08:21:08;99551.16;;;25.17;91.96
5522;BME280;2783;48.730;8.006;2023-07-29T08:23:35;99554.22;;;25.04;92.51
5522;BME280;2783;48.730;8.006;2023-07-29T08:26:04;99553.78;;;24.82;93.54
5522;BME280;2783;48.730;8.006;2023-07-29T08:28:31;99560.13;;;24.73;94.20
5522;BME280;2783;48.730;8.006;2023-07-29T08:30:56;99564.16;;;24.59;95.84
5522;BME280;2783;48.730;8.006;2023-07-29T08:33:22;99569.19;;;24.54;96.96
5522;BME280;2783;48.730;8.006;2023-07-29T08:35:47;99562.78;;;24.45;97.25
5522;BME280;2783;48.730;8.006;2023-07-29T08:38:13;99567.34;;;24.45;97.50
5522;BME280;2783;48.730;8.006;2023-07-29T08:40:49;99563.53;;;24.38;98.43
5522;BME280;2783;48.730;8.006;2023-07-29T08:43:19;99571.94;;;24.35;99.51
5522;BME280;2783;48.730;8.006;2023-07-29T08:45:45;99579.72;;;24.30;99.89
5522;BME280;2783;48.730;8.006;2023-07-29T08:48:13;99579.72;;;24.20;100.00
5522;BME280;2783;48.730;8.006;2023-07-29T08:50:41;99579.44;;;24.14;100.00
5522;BME280;2783;48.730;8.006;2023-07-29T08:53:07;99579.63;;;24.03;100.00
5522;BME280;2783;48.730;8.006;2023-07-29T08:55:33;99595.19;;;23.82;100.00
5522;BME280;2783;48.730;8.006;2023-07-29T08:57:59;99586.88;;;23.55;100.00
5522;BME280;2783;48.730;8.006;2023-07-29T09:00:25;99593.38;;;23.23;100.00
5522;BME280;2783;48.730;8.006;2023-07-29T09:02:51;99578.16;;;22.92;100.00
5522;BME280;2783;48.730;8.006;2023-07-29T09:05:17;99593.47;;;22.63;100.00
5522;BME280;2783;48.730;8.006;2023-07-29T09:07:44;99603.44;;;22.42;100.00
5522;BME280;2783;48.730;8.006;2023-07-29T09:10:10;99598.44;;;22.38;100.00
5522;BME280;2783;48.730;8.006;2023-07-29T09:12:36;99590.03;;;22.61;100.00
5522;BME280;2783;48.730;8.006;2023-07-29T09:15:01;99585.28;;;22.93;100.00
5522;BME280;2783;48.730;8.006;2023-07-29T09:17:31;99577.66;;;23.08;100.00
5522;BME280;2783;48.730;8.006;2023-07-29T09:19:56;99572.00;;;23.30;100.00
5522;BME280;2783;48.730;8.006;2023-07-29T09:22:22;99574.63;;;23.98;100.00
5522;BME280;2783;48.730;8.006;2023-07-29T09:24:47;99579.66;;;24.49;100.00
5522;BME280;2783;48.730;8.006;2023-07-29T09:27:26;99578.53;;;25.15;100.00
5522;BME280;2783;48.730;8.006;2023-07-29T09:29:53;99574.16;;;25.84;98.33
5522;BME280;2783;48.730;8.006;2023-07-29T09:32:24;99575.59;;;26.32;95.11
5522;BME280;2783;48.730;8.006;2023-07-29T09:34:49;99571.06;;;26.99;93.78
5522;BME280;2783;48.730;8.006;2023-07-29T09:37:21;99577.78;;;27.71;86.69
5522;BME280;2783;48.730;8.006;2023-07-29T09:39:48;99583.81;;;27.90;83.04
5522;BME280;2783;48.730;8.006;2023-07-29T09:42:22;99576.91;;;27.78;81.06
5522;BME280;2783;48.730;8.006;2023-07-29T09:44:51;99582.53;;;27.61;83.98
5522;BME280;2783;48.730;8.006;2023-07-29T09:47:24;99586.59;;;27.41;83.88
5522;BME280;2783;48.730;8.006;2023-07-29T09:49:51;99596.03;;;27.20;83.73
5522;BME280;2783;48.730;8.006;2023-07-29T09:52:17;99589.53;;;27.13;83.55
5522;BME280;2783;48.730;8.006;2023-07-29T09:54:44;99597.38;;;27.50;84.49
5522;BME280;2783;48.730;8.006;2023-07-29T09:57:11;99612.53;;;28.10;81.89
5522;BME280;2783;48.730;8.006;2023-07-29T09:59:37;99597.44;;;28.71;80.42
5522;BME280;2783;48.730;8.006;2023-07-29T10:02:03;99601.63;;;28.97;76.47
5522;BME280;2783;48.730;8.006;2023-07-29T10:04:29;99603.47;;;29.05;76.44
5522;BME280;2783;48.730;8.006;2023-07-29T10:06:56;99599.84;;;28.66;76.21
5522;BME280;2783;48.730;8.006;2023-07-29T10:09:23;99603.47;;;28.18;75.68
5522;BME280;2783;48.730;8.006;2023-07-29T10:11:49;99589.88;;;27.68;75.98
5522;BME280;2783;48.730;8.006;2023-07-29T10:14:16;99599.59;;;27.05;79.80
5522;BME280;2783;48.730;8.006;2023-07-29T10:16:43;99608.41;;;26.99;82.00
5522;BME280;2783;48.730;8.006;2023-07-29T10:19:10;99604.94;;;26.89;80.10
5522;BME280;2783;48.730;8.006;2023-07-29T10:21:39;99602.41;;;26.95;78.67
5522;BME280;2783;48.730;8.006;2023-07-29T10:24:08;99596.13;;;27.37;78.99
5522;BME280;2783;48.730;8.006;2023-07-29T10:26:36;99594.34;;;27.69;76.81
5522;BME280;2783;48.730;8.006;2023-07-29T10:29:05;99595.06;;;27.87;75.53
5522;BME280;2783;48.730;8.006;2023-07-29T10:31:34;99588.56;;;28.12;74.70
5522;BME280;2783;48.730;8.006;2023-07-29T10:34:00;99594.69;;;28.38;73.11
5522;BME280;2783;48.730;8.006;2023-07-29T10:36:27;99594.69;;;28.71;74.61
5522;BME280;2783;48.730;8.006;2023-07-29T10:38:53;99592.44;;;28.82;71.96
5522;BME280;2783;48.730;8.006;2023-07-29T10:41:18;99591.38;;;28.91;66.30
5522;BME280;2783;48.730;8.006;2023-07-29T10:43:44;99578.16;;;29.11;68.87
5522;BME280;2783;48.730;8.006;2023-07-29T10:46:20;99581.69;;;29.27;67.83
5522;BME280;2783;48.730;8.006;2023-07-29T10:48:58;99581.88;;;29.79;67.09
5522;BME280;2783;48.730;8.006;2023-07-29T10:51:37;99579.38;;;29.92;63.72
5522;BME280;2783;48.730;8.006;2023-07-29T10:54:03;99581.03;;;30.01;64.14
5522;BME280;2783;48.730;8.006;2023-07-29T10:56:31;99578.97;;;30.03;62.52
5522;BME280;2783;48.730;8.006;2023-07-29T11:01:58;99590.09;;;30.76;63.10
5522;BME280;2783;48.730;8.006;2023-07-29T11:04:26;99587.13;;;31.00;59.94
5522;BME280;2783;48.730;8.006;2023-07-29T11:07:18;99588.63;;;31.03;56.39
5522;BME280;2783;48.730;8.006;2023-07-29T11:12:48;99572.34;;;30.86;58.37
5522;BME280;2783;48.730;8.006;2023-07-29T11:15:24;99574.56;;;30.68;58.11
5522;BME280;2783;48.730;8.006;2023-07-29T11:17:51;99577.03;;;30.63;59.23
5522;BME280;2783;48.730;8.006;2023-07-29T11:20:19;99566.44;;;30.23;59.18
5522;BME280;2783;48.730;8.006;2023-07-29T11:22:45;99571.59;;;30.18;60.51
5522;BME280;2783;48.730;8.006;2023-07-29T11:25:13;99569.88;;;30.25;56.66
5522;BME280;2783;48.730;8.006;2023-07-29T11:27:39;99579.94;;;30.33;57.19
5522;BME280;2783;48.730;8.006;2023-07-29T11:30:07;99576.44;;;30.53;58.25
5522;BME280;2783;48.730;8.006;2023-07-29T11:32:34;99566.16;;;30.70;56.09
5522;BME280;2783;48.730;8.006;2023-07-29T11:35:07;99571.84;;;30.31;54.22
5522;BME280;2783;48.730;8.006;2023-07-29T11:37:37;99569.66;;;30.49;57.90
5522;BME280;2783;48.730;8.006;2023-07-29T11:40:04;99569.66;;;30.49;56.65
5522;BME280;2783;48.730;8.006;2023-07-29T11:42:33;99564.06;;;30.20;55.25
5522;BME280;2783;48.730;8.006;2023-07-29T11:45:00;99572.34;;;30.35;54.56
5522;BME280;2783;48.730;8.006;2023-07-29T11:47:26;99561.22;;;30.51;54.31
5522;BME280;2783;48.730;8.006;2023-07-29T11:49:52;99556.03;;;30.70;55.27
5522;BME280;2783;48.730;8.006;2023-07-29T11:52:18;99555.72;;;30.51;54.38
5522;BME280;2783;48.730;8.006;2023-07-29T11:54:48;99545.66;;;30.29;53.76
5522;BME280;2783;48.730;8.006;2023-07-29T11:57:14;99536.75;;;30.04;57.03
5522;BME280;2783;48.730;8.006;2023-07-29T11:59:41;99537.22;;;29.93;56.66
5522;BME280;2783;48.730;8.006;2023-07-29T12:02:20;99543.19;;;29.74;56.16
5522;BME280;2783;48.730;8.006;2023-07-29T12:04:47;99551.31;;;29.37;56.21
5522;BME280;2783;48.730;8.006;2023-07-29T12:07:14;99532.81;;;29.31;59.42
5522;BME280;2783;48.730;8.006;2023-07-29T12:09:42;99545.56;;;29.24;58.00
5522;BME280;2783;48.730;8.006;2023-07-29T12:12:07;99547.19;;;29.33;55.29
5522;BME280;2783;48.730;8.006;2023-07-29T12:14:34;99546.38;;;29.55;57.05
5522;BME280;2783;48.730;8.006;2023-07-29T12:17:04;99549.56;;;29.44;56.16
5522;BME280;2783;48.730;8.006;2023-07-29T12:19:34;99552.31;;;29.36;58.00
5522;BME280;2783;48.730;8.006;2023-07-29T12:22:01;99542.03;;;29.38;57.13
5522;BME280;2783;48.730;8.006;2023-07-29T12:24:28;99549.84;;;29.18;55.79
5522;BME280;2783;48.730;8.006;2023-07-29T12:26:54;99554.78;;;29.23;58.42
5522;BME280;2783;48.730;8.006;2023-07-29T12:29:19;99549.88;;;29.41;57.64
5522;BME280;2783;48.730;8.006;2023-07-29T12:31:45;99547.47;;;29.46;55.73
5522;BME280;2783;48.730;8.006;2023-07-29T12:34:21;99543.91;;;29.37;56.64
5522;BME280;2783;48.730;8.006;2023-07-29T12:36:50;99546.84;;;29.36;57.89
5522;BME280;2783;48.730;8.006;2023-07-29T12:39:24;99543.53;;;29.48;57.81
5522;BME280;2783;48.730;8.006;2023-07-29T12:41:51;99541.03;;;29.31;56.40
5522;BME280;2783;48.730;8.006;2023-07-29T12:44:17;99539.06;;;29.47;56.09
5522;BME280;2783;48.730;8.006;2023-07-29T12:46:43;99541.28;;;29.52;54.67
5522;BME280;2783;48.730;8.006;2023-07-29T12:49:08;99539.72;;;29.80;56.04
5522;BME280;2783;48.730;8.006;2023-07-29T12:51:34;99536.41;;;29.62;55.18
5522;BME280;2783;48.730;8.006;2023-07-29T12:54:01;99534.66;;;29.38;54.19
5522;BME280;2783;48.730;8.006;2023-07-29T12:56:26;99540.28;;;29.06;54.58
5522;BME280;2783;48.730;8.006;2023-07-29T12:58:52;99531.44;;;28.96;55.75
5522;BME280;2783;48.730;8.006;2023-07-29T13:01:17;99536.75;;;28.98;55.76
5522;BME280;2783;48.730;8.006;2023-07-29T13:03:47;99524.50;;;28.78;56.40
5522;BME280;2783;48.730;8.006;2023-07-29T13:06:13;99511.91;;;28.61;57.71
5522;BME280;2783;48.730;8.006;2023-07-29T13:08:39;99515.31;;;28.63;59.42
5522;BME280;2783;48.730;8.006;2023-07-29T13:11:04;99506.44;;;28.61;59.07
5522;BME280;2783;48.730;8.006;2023-07-29T13:13:30;99510.91;;;28.54;57.51
5522;BME280;2783;48.730;8.006;2023-07-29T13:15:57;99487.56;;;28.74;59.35
5522;BME280;2783;48.730;8.006;2023-07-29T13:18:22;99501.41;;;29.19;57.18
5522;BME280;2783;48.730;8.006;2023-07-29T13:20:48;99504.09;;;29.27;55.41